Time;durP1;ratioP1;P1;durP2;ratioP2;P2;SDS_P1;SDS_P2;PMS_P1;PMS_P2;Temp;Humidity;BMP_temperature;BMP_pressure;BME280_temperature;BME280_humidity;BME280_pressure;Samples;Min_cycle;Max_cycle;Signal;HPM_P1;HPM_P2
2023/12/06 00:03:54;;;;;;;1.17;0.65;;;7.10;99.90;;;;;;10070605;28;20679;-68
2023/12/06 00:08:48;;;;;;;2.25;0.75;;;7.10;99.90;;;;;;10066136;28;20144;-69
2023/12/06 00:13:39;;;;;;;0.75;0.55;;;7.20;99.90;;;;;;10064452;28;20039;-68
2023/12/06 00:18:29;;;;;;;0.75;0.60;;;7.20;99.90;;;;;;10075127;28;20043;-69
2023/12/06 00:23:20;;;;;;;1.10;1.08;;;7.20;99.90;;;;;;10069136;28;20034;-68
2023/12/06 00:28:11;;;;;;;1.95;0.60;;;7.20;99.90;;;;;;10072198;28;20499;-69
2023/12/06 00:33:02;;;;;;;1.67;0.73;;;7.30;99.90;;;;;;10044537;28;20018;-69
2023/12/06 00:37:52;;;;;;;0.80;0.70;;;7.20;99.90;;;;;;10071321;28;20047;-69
2023/12/06 00:42:43;;;;;;;1.77;0.70;;;7.30;99.90;;;;;;10081601;28;20034;-69
2023/12/06 00:47:33;;;;;;;1.23;0.65;;;7.20;99.90;;;;;;10068232;28;20041;-69
2023/12/06 00:52:24;;;;;;;1.55;0.90;;;7.20;99.90;;;;;;10068510;28;20107;-70
2023/12/06 00:57:15;;;;;;;1.13;0.90;;;7.30;99.90;;;;;;10071380;28;20156;-69
2023/12/06 01:02:06;;;;;;;1.65;0.73;;;7.30;99.90;;;;;;10060781;28;20034;-69
2023/12/06 01:06:57;;;;;;;1.80;0.90;;;7.30;99.90;;;;;;10061873;28;20029;-69
2023/12/06 01:11:47;;;;;;;0.77;0.52;;;7.30;99.90;;;;;;10070192;28;20211;-69
2023/12/06 01:16:38;;;;;;;1.40;0.95;;;7.30;99.90;;;;;;10072789;28;20052;-69
2023/12/06 01:21:28;;;;;;;2.03;1.10;;;7.30;99.90;;;;;;10072510;28;20404;-69
2023/12/06 01:26:19;;;;;;;4.03;1.10;;;7.30;99.90;;;;;;10070122;28;20416;-70
2023/12/06 01:31:10;;;;;;;2.60;0.90;;;7.30;99.90;;;;;;10059817;28;20025;-69
2023/12/06 01:36:00;;;;;;;2.13;0.73;;;7.20;99.90;;;;;;10069436;28;20084;-69
2023/12/06 01:40:51;;;;;;;1.45;1.30;;;7.20;99.90;;;;;;10077872;28;20037;-68
2023/12/06 01:45:42;;;;;;;1.45;0.90;;;7.20;99.90;;;;;;10079966;28;20040;-69
2023/12/06 01:50:39;;;;;;;0.98;0.75;;;7.20;99.90;;;;;;10061038;28;20493;-69
2023/12/06 01:55:30;;;;;;;3.00;1.08;;;7.20;99.90;;;;;;10045403;28;20037;-69
2023/12/06 02:00:21;;;;;;;1.17;0.85;;;7.20;99.90;;;;;;10067215;28;20582;-69
2023/12/06 02:05:17;;;;;;;1.80;0.85;;;7.10;99.90;;;;;;10063089;28;20126;-69
2023/12/06 02:10:09;;;;;;;1.73;1.00;;;7.20;99.90;;;;;;10067269;28;20040;-68
2023/12/06 02:15:00;;;;;;;1.02;0.73;;;7.20;99.90;;;;;;10063811;28;20037;-68
2023/12/06 02:19:53;;;;;;;1.40;1.00;;;7.30;99.90;;;;;;10060348;28;20107;-68
2023/12/06 02:24:45;;;;;;;4.65;1.05;;;7.30;99.90;;;;;;10066789;28;20033;-68
2023/12/06 02:29:37;;;;;;;1.55;1.00;;;7.30;99.90;;;;;;10062219;28;20044;-68
2023/12/06 02:34:28;;;;;;;2.53;1.00;;;7.30;99.90;;;;;;10055302;28;20071;-68
2023/12/06 02:39:20;;;;;;;1.80;0.88;;;7.20;99.90;;;;;;10073171;28;20022;-68
2023/12/06 02:44:10;;;;;;;0.98;0.80;;;7.20;99.90;;;;;;10073010;28;20545;-69
2023/12/06 02:49:01;;;;;;;3.00;0.88;;;7.20;99.90;;;;;;10058364;28;20032;-69
2023/12/06 02:53:52;;;;;;;1.40;1.15;;;7.30;99.90;;;;;;10073996;28;20033;-69
2023/12/06 02:58:42;;;;;;;1.83;0.65;;;7.20;99.90;;;;;;10066542;28;20145;-68
2023/12/06 03:03:33;;;;;;;1.77;0.85;;;7.10;99.90;;;;;;10058469;28;20068;-69
2023/12/06 03:08:25;;;;;;;2.65;0.63;;;7.20;99.90;;;;;;10064043;28;20109;-68
2023/12/06 03:13:16;;;;;;;1.23;1.13;;;7.20;99.90;;;;;;10044670;28;20034;-69
2023/12/06 03:18:06;;;;;;;1.90;0.98;;;7.20;99.90;;;;;;10060668;28;20033;-69
2023/12/06 03:22:57;;;;;;;4.20;1.25;;;7.10;99.90;;;;;;10064042;28;20033;-69
2023/12/06 03:27:48;;;;;;;1.60;1.17;;;7.20;99.90;;;;;;10057888;28;20033;-69
2023/12/06 03:32:38;;;;;;;0.65;0.63;;;7.20;99.90;;;;;;10056334;28;20044;-69
2023/12/06 03:37:29;;;;;;;1.05;0.70;;;7.20;99.90;;;;;;10064677;28;20049;-69
2023/12/06 03:42:19;;;;;;;1.75;1.02;;;7.20;99.90;;;;;;10073825;28;20036;-68
2023/12/06 03:47:10;;;;;;;1.92;1.63;;;7.20;99.90;;;;;;10075010;28;20060;-68
2023/12/06 03:52:01;;;;;;;1.38;1.08;;;7.20;99.90;;;;;;10067514;28;20429;-69
2023/12/06 03:56:51;;;;;;;1.05;0.60;;;7.20;99.90;;;;;;10067135;28;20040;-70
2023/12/06 04:01:43;;;;;;;1.30;0.77;;;7.00;99.90;;;;;;10062103;28;20399;-69
2023/12/06 04:06:34;;;;;;;3.65;1.52;;;7.00;99.90;;;;;;10055264;28;20040;-69
2023/12/06 04:11:25;;;;;;;1.00;0.80;;;7.00;99.90;;;;;;10057596;28;20034;-69
2023/12/06 04:16:16;;;;;;;0.93;0.70;;;7.00;99.90;;;;;;10062952;28;20045;-69
2023/12/06 04:21:07;;;;;;;1.10;0.80;;;7.00;99.90;;;;;;10064861;28;20030;-69
2023/12/06 04:25:58;;;;;;;1.40;0.70;;;7.10;99.90;;;;;;10069983;28;20052;-69
2023/12/06 04:30:48;;;;;;;1.38;0.88;;;7.20;99.90;;;;;;10061065;28;20022;-69
2023/12/06 04:35:39;;;;;;;0.93;0.73;;;7.00;99.90;;;;;;10061827;28;20147;-69
2023/12/06 04:40:30;;;;;;;3.53;1.15;;;7.00;99.90;;;;;;10058146;28;20025;-69
2023/12/06 04:45:20;;;;;;;1.25;0.93;;;7.00;99.90;;;;;;10066016;28;20041;-69
2023/12/06 04:50:11;;;;;;;0.85;0.70;;;7.10;99.90;;;;;;10068727;28;20018;-69
2023/12/06 04:55:05;;;;;;;1.25;0.93;;;7.10;99.90;;;;;;10072338;28;20051;-69
2023/12/06 04:59:56;;;;;;;1.80;1.10;;;7.20;99.90;;;;;;10065506;28;20113;-69
2023/12/06 05:04:46;;;;;;;3.38;0.93;;;7.10;99.90;;;;;;10065468;28;20124;-71
2023/12/06 05:09:38;;;;;;;2.03;1.10;;;7.10;99.90;;;;;;10065905;28;20043;-70
2023/12/06 05:14:28;;;;;;;3.15;1.48;;;7.10;99.90;;;;;;10062304;28;20493;-68
2023/12/06 05:19:19;;;;;;;1.80;1.20;;;7.10;99.90;;;;;;10063848;28;20083;-68
2023/12/06 05:24:10;;;;;;;0.82;0.80;;;7.20;99.90;;;;;;10065036;28;20116;-68
2023/12/06 05:29:01;;;;;;;7.35;1.55;;;7.20;99.90;;;;;;10063818;28;20036;-69
2023/12/06 05:33:52;;;;;;;2.42;1.13;;;7.10;99.90;;;;;;10060238;28;20050;-69
2023/12/06 05:38:42;;;;;;;1.25;0.95;;;7.10;99.90;;;;;;10077369;28;20047;-69
2023/12/06 05:43:33;;;;;;;2.15;1.08;;;7.10;99.90;;;;;;10074543;28;20090;-70
2023/12/06 05:48:23;;;;;;;2.15;1.42;;;7.10;99.90;;;;;;10073242;28;20037;-68
2023/12/06 05:53:14;;;;;;;1.38;0.90;;;7.10;99.90;;;;;;10054275;28;20022;-70
2023/12/06 05:58:05;;;;;;;2.00;1.48;;;7.10;99.90;;;;;;10068201;28;20061;-69
2023/12/06 06:02:58;;;;;;;1.58;1.17;;;7.00;99.90;;;;;;10068361;28;20499;-68
2023/12/06 06:07:48;;;;;;;3.28;1.27;;;7.00;99.90;;;;;;10068217;28;20032;-69
2023/12/06 06:12:39;;;;;;;2.80;1.60;;;7.00;99.90;;;;;;10065582;28;20502;-68
2023/12/06 06:17:30;;;;;;;1.63;1.38;;;7.00;99.90;;;;;;10061131;28;20044;-68
2023/12/06 06:22:20;;;;;;;4.78;1.88;;;7.00;99.90;;;;;;10064226;28;20052;-69
2023/12/06 06:27:11;;;;;;;3.65;1.63;;;6.90;99.90;;;;;;10065654;28;20033;-69
2023/12/06 06:32:03;;;;;;;3.35;1.92;;;7.00;99.90;;;;;;10060350;28;20083;-69
2023/12/06 06:36:54;;;;;;;3.97;1.63;;;7.10;99.90;;;;;;10070771;28;20539;-69
2023/12/06 06:41:46;;;;;;;2.92;1.90;;;7.10;99.90;;;;;;10076700;28;20105;-69
2023/12/06 06:46:37;;;;;;;5.00;3.17;;;7.00;99.90;;;;;;10076751;28;20459;-69
2023/12/06 06:51:37;;;;;;;3.92;2.75;;;6.90;99.90;;;;;;10070905;28;20105;-69
2023/12/06 06:56:31;;;;;;;7.47;3.55;;;7.00;99.90;;;;;;10074021;28;20124;-69
2023/12/06 07:01:21;;;;;;;4.93;2.40;;;7.00;99.90;;;;;;10064467;28;20104;-69
2023/12/06 07:06:12;;;;;;;6.75;3.38;;;6.90;99.90;;;;;;10058297;28;20112;-69
2023/12/06 07:11:06;;;;;;;5.43;2.70;;;6.90;99.90;;;;;;10056501;28;20526;-69
2023/12/06 07:15:57;;;;;;;4.07;2.60;;;6.90;99.90;;;;;;10055611;28;20136;-68
2023/12/06 07:20:51;;;;;;;5.55;3.35;;;6.90;99.90;;;;;;10060515;28;20025;-70
2023/12/06 07:25:41;;;;;;;5.15;2.92;;;7.00;99.90;;;;;;10063902;28;20037;-69
2023/12/06 07:30:32;;;;;;;5.55;3.47;;;7.00;99.90;;;;;;10059217;28;20030;-69
2023/12/06 07:35:23;;;;;;;6.13;2.63;;;6.90;99.90;;;;;;10052288;28;20676;-70
2023/12/06 07:40:14;;;;;;;5.30;2.78;;;6.80;99.90;;;;;;10074457;28;20513;-71
2023/12/06 07:45:05;;;;;;;3.88;2.45;;;6.90;99.90;;;;;;10069324;28;20030;-70
2023/12/06 07:49:56;;;;;;;5.15;3.20;;;6.80;99.90;;;;;;10056835;28;20045;-68
2023/12/06 07:54:46;;;;;;;4.88;2.25;;;6.80;99.90;;;;;;10060021;28;20037;-71
2023/12/06 07:59:38;;;;;;;10.68;3.97;;;6.90;99.90;;;;;;10063966;28;20033;-70
2023/12/06 08:04:29;;;;;;;4.60;3.15;;;6.90;99.90;;;;;;10068774;28;20045;-71
2023/12/06 08:09:20;;;;;;;4.20;3.45;;;6.90;99.90;;;;;;10053557;28;20542;-72
2023/12/06 08:14:11;;;;;;;4.38;2.50;;;7.00;99.90;;;;;;10071364;28;20033;-72
2023/12/06 08:19:01;;;;;;;2.90;2.30;;;7.00;99.90;;;;;;10062825;28;20044;-73
2023/12/06 08:23:52;;;;;;;6.05;2.90;;;7.00;99.90;;;;;;10066963;28;20103;-71
2023/12/06 08:28:46;;;;;;;5.38;3.42;;;6.90;99.90;;;;;;10051553;28;20125;-71
2023/12/06 08:33:37;;;;;;;4.38;2.67;;;6.90;99.90;;;;;;10062878;28;20045;-72
2023/12/06 08:38:28;;;;;;;6.20;3.45;;;7.00;99.90;;;;;;10066230;28;20401;-72
2023/12/06 08:43:19;;;;;;;5.25;3.28;;;7.00;99.90;;;;;;10070592;28;20013;-69
2023/12/06 08:48:10;;;;;;;5.00;2.70;;;7.00;99.90;;;;;;10063544;28;20029;-71
2023/12/06 08:53:00;;;;;;;5.55;3.00;;;6.90;99.90;;;;;;10063339;28;20033;-69
2023/12/06 08:57:54;;;;;;;5.00;3.13;;;7.00;99.90;;;;;;10061792;28;20450;-71
2023/12/06 09:02:46;;;;;;;5.55;3.17;;;7.00;99.90;;;;;;10060556;28;20025;-68
2023/12/06 09:07:40;;;;;;;4.60;2.60;;;7.00;99.90;;;;;;10063630;28;20143;-68
2023/12/06 09:12:31;;;;;;;4.63;3.38;;;7.00;99.90;;;;;;10055116;28;20022;-70
2023/12/06 09:17:21;;;;;;;3.78;2.63;;;7.00;99.90;;;;;;10068474;28;20041;-68
2023/12/06 09:22:15;;;;;;;7.28;2.97;;;7.00;99.90;;;;;;10065576;28;20589;-69
2023/12/06 09:27:07;;;;;;;4.95;2.60;;;7.10;99.90;;;;;;10062588;28;20033;-71
2023/12/06 09:31:57;;;;;;;4.35;2.72;;;7.00;99.90;;;;;;10062268;28;20595;-71
2023/12/06 09:36:48;;;;;;;8.80;2.83;;;7.10;99.90;;;;;;10068470;28;20143;-69
2023/12/06 09:41:38;;;;;;;4.85;3.67;;;7.20;99.90;;;;;;10074989;28;20036;-72
2023/12/06 09:46:29;;;;;;;4.47;3.17;;;7.10;99.90;;;;;;10073258;28;20083;-75
2023/12/06 09:51:20;;;;;;;5.65;2.47;;;7.30;99.90;;;;;;10071571;28;20029;-70
2023/12/06 09:56:13;;;;;;;4.07;2.53;;;7.30;99.90;;;;;;10072502;28;20061;-70
2023/12/06 10:01:04;;;;;;;3.85;2.75;;;7.30;99.90;;;;;;10071344;28;20605;-69
2023/12/06 10:06:03;;;;;;;4.25;2.60;;;7.20;99.90;;;;;;10064271;28;20071;-67
2023/12/06 10:11:28;;;;;;;3.25;2.15;;;7.30;99.90;;;;;;10060204;28;20040;-70
2023/12/06 10:16:23;;;;;;;4.57;3.37;;;7.30;99.90;;;;;;10046270;28;20052;-75
2023/12/06 10:21:14;;;;;;;5.50;2.85;;;7.30;99.90;;;;;;10067976;28;20021;-72
2023/12/06 10:26:35;;;;;;;4.45;3.25;;;7.30;99.90;;;;;;10048511;28;20120;-70
2023/12/06 10:36:32;;;;;;;4.07;2.75;;;7.40;99.90;;;;;;10997546;22;20057;-67
2023/12/06 10:41:41;;;;;;;5.20;2.42;;;7.40;99.90;;;;;;10026143;28;20071;-70
2023/12/06 10:46:32;;;;;;;3.72;2.95;;;7.40;99.90;;;;;;10052299;22;20510;-67
2023/12/06 10:51:24;;;;;;;5.75;3.17;;;7.30;99.90;;;;;;10060844;28;20025;-69
2023/12/06 10:56:19;;;;;;;5.28;2.50;;;7.30;99.90;;;;;;10038190;28;20065;-66
2023/12/06 11:01:12;;;;;;;6.35;2.95;;;7.40;99.90;;;;;;10057813;28;20032;-68
2023/12/06 11:06:22;;;;;;;5.45;2.90;;;7.50;99.90;;;;;;10056549;28;20541;-66
2023/12/06 11:11:39;;;;;;;5.00;3.00;;;7.40;99.90;;;;;;10044732;28;20018;-69
2023/12/06 11:16:49;;;;;;;5.32;3.85;;;7.40;99.90;;;;;;10056964;28;20052;-66
2023/12/06 11:21:40;;;;;;;5.18;3.40;;;7.40;99.90;;;;;;10058672;28;20010;-68
2023/12/06 11:26:32;;;;;;;5.80;3.58;;;7.50;99.90;;;;;;10062078;28;20041;-66
2023/12/06 11:31:35;;;;;;;5.10;3.10;;;7.50;99.90;;;;;;10070575;28;20453;-68
2023/12/06 11:36:26;;;;;;;5.30;3.35;;;7.50;99.90;;;;;;10068701;28;20757;-67
2023/12/06 11:41:17;;;;;;;6.35;4.20;;;7.60;99.90;;;;;;10064085;28;20021;-66
2023/12/06 11:46:09;;;;;;;4.85;3.58;;;7.60;99.90;;;;;;10065183;28;20038;-67
2023/12/06 11:51:03;;;;;;;6.50;4.22;;;7.60;99.90;;;;;;10067159;28;20112;-67
2023/12/06 11:55:55;;;;;;;6.15;3.60;;;7.60;99.90;;;;;;10063447;28;20175;-67
2023/12/06 12:00:47;;;;;;;7.63;4.25;;;7.60;99.90;;;;;;10045055;28;20612;-67
2023/12/06 12:05:41;;;;;;;5.88;3.42;;;7.60;99.90;;;;;;10051253;28;20106;-66
2023/12/06 12:10:34;;;;;;;5.07;2.60;;;7.60;99.90;;;;;;10063162;28;20064;-67
2023/12/06 12:15:27;;;;;;;5.57;2.97;;;7.60;99.90;;;;;;10065598;28;20120;-66
2023/12/06 12:20:19;;;;;;;4.53;3.03;;;7.60;99.90;;;;;;10060566;28;20021;-65
2023/12/06 12:25:10;;;;;;;4.55;2.45;;;7.60;99.90;;;;;;10051386;28;20410;-67
2023/12/06 12:30:12;;;;;;;4.63;2.28;;;7.70;99.90;;;;;;10057297;28;20025;-65
2023/12/06 12:35:05;;;;;;;4.78;2.28;;;7.70;99.90;;;;;;10058951;28;20075;-67
2023/12/06 12:40:02;;;;;;;4.80;2.90;;;7.80;99.90;;;;;;10059068;28;20031;-65
2023/12/06 12:44:53;;;;;;;7.25;3.72;;;7.80;99.90;;;;;;10037801;22;20046;-71
2023/12/06 12:49:45;;;;;;;5.68;3.15;;;7.80;99.90;;;;;;9978988;28;20109;-72
2023/12/06 12:54:37;;;;;;;4.63;3.47;;;7.80;99.90;;;;;;9974079;28;20480;-71
2023/12/06 12:59:31;;;;;;;5.45;3.15;;;7.80;99.90;;;;;;9972271;28;20042;-71
2023/12/06 13:04:22;;;;;;;4.45;2.70;;;7.70;99.90;;;;;;9981377;28;20504;-72
2023/12/06 13:09:13;;;;;;;4.53;2.40;;;7.70;99.90;;;;;;9983086;28;20030;-72
2023/12/06 13:14:04;;;;;;;4.70;2.90;;;7.70;99.90;;;;;;9979279;28;20089;-74
2023/12/06 13:18:54;;;;;;;5.00;2.58;;;7.70;99.90;;;;;;9984632;28;20415;-71
2023/12/06 13:23:45;;;;;;;4.50;3.00;;;7.80;99.90;;;;;;9984418;28;20022;-77
2023/12/06 13:28:36;;;;;;;5.25;2.83;;;7.80;99.90;;;;;;9980109;28;20041;-76
2023/12/06 13:33:27;;;;;;;7.55;3.47;;;7.80;99.90;;;;;;9980589;28;20042;-74
2023/12/06 13:38:17;;;;;;;4.60;3.10;;;7.80;99.90;;;;;;9976770;28;20034;-73
2023/12/06 13:43:08;;;;;;;7.18;3.30;;;7.80;99.90;;;;;;9981669;28;20030;-79
2023/12/06 13:47:59;;;;;;;6.15;3.47;;;7.90;99.90;;;;;;9981066;28;20046;-76
2023/12/06 13:52:50;;;;;;;5.20;3.10;;;7.80;99.90;;;;;;9982177;28;20029;-71
2023/12/06 13:57:43;;;;;;;4.75;2.58;;;7.80;99.90;;;;;;9978546;28;20129;-74
2023/12/06 14:02:34;;;;;;;6.05;3.83;;;7.60;99.90;;;;;;9978446;28;20042;-73
2023/12/06 14:07:25;;;;;;;5.18;3.10;;;7.60;99.90;;;;;;9979115;28;20039;-69
2023/12/06 14:12:15;;;;;;;5.53;3.45;;;7.70;99.90;;;;;;9978312;28;20529;-69
2023/12/06 14:17:17;;;;;;;6.45;3.22;;;7.80;99.90;;;;;;10134701;28;20410;-74
2023/12/06 14:22:08;;;;;;;6.68;3.30;;;7.70;99.90;;;;;;10075424;28;20068;-72
2023/12/06 14:26:59;;;;;;;5.68;2.65;;;7.60;99.90;;;;;;10108930;28;20028;-73
2023/12/06 14:31:50;;;;;;;5.13;2.85;;;7.50;99.90;;;;;;10107418;28;20040;-73
2023/12/06 14:36:41;;;;;;;5.65;3.08;;;7.60;99.90;;;;;;10096298;28;20090;-74
2023/12/06 14:41:34;;;;;;;6.43;4.00;;;7.60;99.90;;;;;;10093174;28;20052;-75
2023/12/06 14:46:24;;;;;;;6.35;2.65;;;7.60;99.90;;;;;;10098114;28;20163;-74
2023/12/06 14:51:18;;;;;;;4.53;3.15;;;7.60;99.90;;;;;;10089464;28;20165;-72
2023/12/06 14:56:11;;;;;;;4.13;2.60;;;7.60;99.90;;;;;;10102947;28;20033;-71
2023/12/06 15:01:02;;;;;;;5.25;2.75;;;7.50;99.90;;;;;;10094165;28;20030;-75
2023/12/06 15:05:52;;;;;;;5.43;2.97;;;7.50;99.90;;;;;;10090396;28;20123;-70
2023/12/06 15:10:43;;;;;;;5.00;2.90;;;7.50;99.90;;;;;;10106120;28;20108;-70
2023/12/06 15:15:35;;;;;;;5.38;2.78;;;7.50;99.90;;;;;;10122431;28;20048;-71
2023/12/06 15:20:26;;;;;;;4.97;2.88;;;7.50;99.90;;;;;;10090746;28;20021;-73
2023/12/06 15:25:16;;;;;;;3.88;2.58;;;7.50;99.90;;;;;;10088149;28;20438;-77
2023/12/06 15:30:07;;;;;;;4.25;2.53;;;7.50;99.90;;;;;;10080964;28;20017;-79
2023/12/06 15:34:58;;;;;;;4.70;2.88;;;7.50;99.90;;;;;;10089027;28;20410;-69
2023/12/06 15:39:49;;;;;;;4.88;2.95;;;7.40;99.90;;;;;;10079845;28;20045;-68
2023/12/06 15:44:40;;;;;;;5.45;2.95;;;7.40;99.90;;;;;;10057904;28;20148;-71
2023/12/06 15:49:30;;;;;;;4.28;2.22;;;7.40;99.90;;;;;;10046735;28;20029;-72
2023/12/06 15:54:22;;;;;;;5.85;3.22;;;7.30;99.90;;;;;;10069780;28;20036;-72
2023/12/06 15:59:13;;;;;;;6.55;3.30;;;7.40;99.90;;;;;;10062397;28;20059;-72
2023/12/06 16:04:03;;;;;;;6.93;3.55;;;7.40;99.90;;;;;;10064883;28;20021;-71
2023/12/06 16:08:54;;;;;;;5.85;3.28;;;7.30;99.90;;;;;;10067188;28;20387;-73
2023/12/06 16:13:45;;;;;;;5.63;3.90;;;7.30;99.90;;;;;;10080847;28;20120;-72
2023/12/06 16:18:36;;;;;;;6.82;3.60;;;7.30;99.90;;;;;;10053971;28;20032;-73
2023/12/06 16:23:27;;;;;;;6.75;3.85;;;7.50;99.90;;;;;;10069987;28;20035;-73
2023/12/06 16:28:17;;;;;;;6.68;4.43;;;7.50;99.90;;;;;;10063448;28;20086;-73
2023/12/06 16:33:08;;;;;;;6.00;3.13;;;7.50;99.90;;;;;;10069812;28;20148;-73
2023/12/06 16:38:04;;;;;;;5.25;3.50;;;7.40;99.90;;;;;;10080597;28;20071;-72
2023/12/06 16:42:55;;;;;;;7.28;3.45;;;7.40;99.90;;;;;;10072403;28;20509;-73
2023/12/06 16:47:45;;;;;;;8.68;4.75;;;7.50;99.90;;;;;;10078821;28;20034;-73
2023/12/06 16:52:38;;;;;;;7.63;3.83;;;7.50;99.90;;;;;;10062809;28;20040;-73
2023/12/06 16:57:29;;;;;;;8.25;4.95;;;7.60;99.90;;;;;;10060839;28;20018;-72
2023/12/06 17:02:20;;;;;;;8.23;4.22;;;7.50;99.90;;;;;;10071929;28;20025;-73
2023/12/06 17:07:11;;;;;;;6.70;4.32;;;7.50;99.90;;;;;;10075041;28;20452;-73
2023/12/06 17:12:02;;;;;;;7.82;4.90;;;7.50;99.90;;;;;;10053462;28;20105;-73
2023/12/06 17:16:55;;;;;;;9.75;5.63;;;7.50;99.90;;;;;;10064139;28;20085;-74
2023/12/06 17:21:46;;;;;;;8.00;4.07;;;7.50;99.90;;;;;;10059566;28;20032;-73
2023/12/06 17:26:36;;;;;;;7.38;3.85;;;7.60;99.90;;;;;;10073522;28;20041;-75
2023/12/06 17:31:27;;;;;;;8.50;4.25;;;7.40;99.90;;;;;;10070612;28;20627;-75
2023/12/06 17:36:18;;;;;;;6.57;3.75;;;7.50;99.90;;;;;;10048836;28;20041;-74
2023/12/06 17:41:08;;;;;;;7.65;3.83;;;7.50;99.90;;;;;;10040286;28;20033;-74
2023/12/06 17:45:59;;;;;;;8.57;4.32;;;7.50;99.90;;;;;;10052485;28;20588;-74
2023/12/06 17:50:51;;;;;;;11.15;4.80;;;7.40;99.90;;;;;;10046604;28;20538;-74
2023/12/06 17:55:41;;;;;;;8.27;4.47;;;7.50;99.90;;;;;;10053422;28;20029;-71
2023/12/06 18:00:32;;;;;;;8.60;4.15;;;7.50;99.90;;;;;;10062433;28;20033;-73
2023/12/06 18:05:24;;;;;;;8.13;4.00;;;7.50;99.90;;;;;;10051300;28;20071;-81
2023/12/06 18:10:15;;;;;;;9.82;4.57;;;7.50;99.90;;;;;;10068353;28;20216;-75
2023/12/06 18:15:06;;;;;;;7.72;4.03;;;7.40;99.90;;;;;;10065493;28;20129;-70
2023/12/06 18:19:56;;;;;;;8.15;5.13;;;7.30;99.90;;;;;;10057837;28;20742;-73
2023/12/06 18:24:47;;;;;;;8.63;4.00;;;7.30;99.90;;;;;;10065086;28;20034;-73
2023/12/06 18:29:38;;;;;;;7.00;4.18;;;7.30;99.90;;;;;;10060017;28;20043;-77
2023/12/06 18:34:28;;;;;;;12.68;5.63;;;7.40;99.90;;;;;;10056495;28;20040;-72
2023/12/06 18:39:19;;;;;;;9.52;5.13;;;7.40;99.90;;;;;;10059766;28;20487;-74
2023/12/06 18:44:10;;;;;;;9.32;4.20;;;7.40;99.90;;;;;;10056971;28;20598;-74
2023/12/06 18:49:02;;;;;;;8.05;5.00;;;7.40;99.90;;;;;;10059775;28;20036;-74
2023/12/06 18:53:55;;;;;;;8.32;4.55;;;7.50;99.90;;;;;;10055407;28;20371;-72
2023/12/06 18:58:46;;;;;;;8.65;4.60;;;7.40;99.90;;;;;;10069438;28;20510;-75
2023/12/06 19:03:39;;;;;;;7.15;4.68;;;7.40;99.90;;;;;;10056026;28;20033;-72
2023/12/06 19:08:30;;;;;;;12.00;5.20;;;7.40;99.90;;;;;;10072949;28;20032;-72
2023/12/06 19:13:21;;;;;;;10.40;5.63;;;7.40;99.90;;;;;;10060452;28;20510;-73
2023/12/06 19:18:12;;;;;;;9.73;5.28;;;7.30;99.90;;;;;;10065503;28;20100;-77
2023/12/06 19:23:03;;;;;;;22.05;11.10;;;7.30;99.90;;;;;;10058404;28;20052;-75
2023/12/06 19:27:53;;;;;;;1653.88;519.33;;;7.30;99.90;;;;;;10068308;28;20506;-71
2023/12/06 19:32:44;;;;;;;455.73;267.92;;;7.60;99.90;;;;;;10056346;28;20104;-78
2023/12/06 19:37:35;;;;;;;78.60;38.88;;;7.60;99.90;;;;;;10055698;28;20434;-80
2023/12/06 19:42:26;;;;;;;42.30;21.80;;;7.40;99.90;;;;;;10055406;28;20017;-75
2023/12/06 19:47:18;;;;;;;36.95;18.38;;;7.40;99.90;;;;;;10053394;28;20040;-69
2023/12/06 19:52:09;;;;;;;30.98;16.42;;;7.40;99.90;;;;;;10057807;28;20116;-77
2023/12/06 19:56:59;;;;;;;27.23;13.50;;;7.50;99.90;;;;;;10054582;28;20041;-76
2023/12/06 20:01:50;;;;;;;20.70;11.75;;;7.40;99.90;;;;;;10055837;28;20067;-74
2023/12/06 20:06:41;;;;;;;38.85;18.15;;;7.40;99.90;;;;;;10055765;28;20029;-77
2023/12/06 20:11:32;;;;;;;20.52;12.27;;;7.40;99.90;;;;;;10066140;28;20022;-72
2023/12/06 20:16:23;;;;;;;129.43;60.45;;;7.40;99.90;;;;;;10072007;28;20132;-73
2023/12/06 20:21:13;;;;;;;38.60;18.33;;;7.40;99.90;;;;;;10058964;28;20518;-74
2023/12/06 20:26:04;;;;;;;16.20;8.70;;;7.40;99.90;;;;;;10063459;28;20135;-73
2023/12/06 20:30:55;;;;;;;14.68;7.68;;;7.30;99.90;;;;;;10054908;28;20053;-71
2023/12/06 20:35:46;;;;;;;12.70;7.20;;;7.40;99.90;;;;;;10069697;28;20041;-76
2023/12/06 20:40:38;;;;;;;13.90;6.45;;;7.40;99.90;;;;;;10052194;28;20025;-72
2023/12/06 20:45:28;;;;;;;17.17;8.60;;;7.40;99.90;;;;;;10070009;28;20465;-79
2023/12/06 20:50:19;;;;;;;8.70;5.72;;;7.40;99.90;;;;;;10060887;28;20025;-70
2023/12/06 20:55:10;;;;;;;14.45;7.65;;;7.30;99.90;;;;;;10055536;28;20051;-76
2023/12/06 21:00:01;;;;;;;10.45;7.05;;;7.30;99.90;;;;;;10065563;28;20088;-73
2023/12/06 21:04:52;;;;;;;12.55;6.53;;;7.20;99.90;;;;;;10059717;28;20715;-77
2023/12/06 21:09:43;;;;;;;9.30;5.25;;;7.10;99.90;;;;;;10035807;28;20029;-73
2023/12/06 21:14:33;;;;;;;11.27;6.82;;;7.20;99.90;;;;;;10055724;28;20099;-79
2023/12/06 21:19:24;;;;;;;15.63;6.85;;;7.10;99.90;;;;;;10064987;28;20061;-79
2023/12/06 21:24:16;;;;;;;14.50;7.85;;;7.10;99.90;;;;;;10048860;28;20525;-71
2023/12/06 21:29:07;;;;;;;10.70;5.93;;;7.00;99.90;;;;;;10058729;28;20034;-76
2023/12/06 21:33:57;;;;;;;11.98;6.90;;;6.90;99.90;;;;;;10056695;28;20142;-75
2023/12/06 21:38:48;;;;;;;9.68;6.18;;;6.90;99.90;;;;;;10060382;28;20055;-75
2023/12/06 21:43:39;;;;;;;11.95;6.55;;;6.90;99.90;;;;;;10060249;28;20120;-72
2023/12/06 21:48:30;;;;;;;8.93;5.05;;;6.90;99.90;;;;;;10047493;28;20550;-73
2023/12/06 21:53:20;;;;;;;13.48;6.50;;;6.80;99.90;;;;;;10053582;28;20393;-72
2023/12/06 21:58:11;;;;;;;8.90;6.15;;;6.80;99.90;;;;;;10047751;28;20060;-74
2023/12/06 22:03:02;;;;;;;11.07;6.68;;;6.80;99.90;;;;;;10061355;28;20029;-69
2023/12/06 22:07:53;;;;;;;8.90;5.45;;;6.70;99.90;;;;;;10059378;28;20429;-75
2023/12/06 22:12:44;;;;;;;9.00;5.47;;;6.60;99.90;;;;;;10056336;28;20029;-72
2023/12/06 22:17:35;;;;;;;11.98;6.22;;;6.60;99.90;;;;;;10049274;28;20033;-72
2023/12/06 22:22:26;;;;;;;10.95;6.45;;;6.70;99.90;;;;;;10045277;28;20028;-72
2023/12/06 22:27:16;;;;;;;12.48;6.13;;;6.60;99.90;;;;;;10052907;28;20021;-75
2023/12/06 22:32:09;;;;;;;12.48;7.00;;;6.60;99.90;;;;;;10048742;28;20026;-72
2023/12/06 22:37:00;;;;;;;11.38;7.05;;;6.60;99.90;;;;;;10058648;28;20120;-72
2023/12/06 22:41:51;;;;;;;172.73;83.10;;;6.60;99.90;;;;;;10068807;28;20018;-72
2023/12/06 22:46:42;;;;;;;52.40;27.40;;;6.60;99.90;;;;;;10059393;28;20524;-66
2023/12/06 22:51:33;;;;;;;19.23;11.43;;;6.60;99.90;;;;;;10058514;28;20159;-76
2023/12/06 22:56:24;;;;;;;18.85;9.45;;;6.50;99.90;;;;;;10067647;28;20033;-74
2023/12/06 23:01:15;;;;;;;16.77;8.80;;;6.40;99.90;;;;;;10073398;28;20028;-77
2023/12/06 23:06:06;;;;;;;14.80;7.65;;;6.40;99.90;;;;;;10068095;28;20035;-75
2023/12/06 23:10:57;;;;;;;17.02;9.30;;;6.40;99.90;;;;;;10066390;28;20463;-74
2023/12/06 23:15:47;;;;;;;16.70;7.30;;;6.40;99.90;;;;;;10065941;28;20067;-73
2023/12/06 23:20:41;;;;;;;13.30;7.22;;;6.30;99.90;;;;;;10068156;28;20551;-74
2023/12/06 23:25:31;;;;;;;12.82;7.10;;;6.30;99.90;;;;;;10087795;28;20403;-74
2023/12/06 23:30:25;;;;;;;13.68;7.32;;;6.30;99.90;;;;;;10085741;28;20029;-75
2023/12/06 23:35:22;;;;;;;14.05;7.43;;;6.30;99.90;;;;;;10067159;28;20064;-74
2023/12/06 23:40:12;;;;;;;12.75;7.22;;;6.30;99.90;;;;;;10067198;28;20021;-74
2023/12/06 23:45:25;;;;;;;14.05;7.32;;;6.20;99.90;;;;;;10071821;28;20502;-73
2023/12/06 23:50:18;;;;;;;13.25;6.95;;;6.20;99.90;;;;;;10091381;23;20049;-73
2023/12/06 23:55:09;;;;;;;12.48;6.85;;;6.20;99.90;;;;;;10099267;28;20044;-74
